sensor_id;sensor_type;location;lat;lon;timestamp;temperature;humidity
13850;DHT22;6995;52.618;13.488;2023-05-21T00:02:21;16.10;99.90
13850;DHT22;6995;52.618;13.488;2023-05-21T00:04:47;16.10;99.90
13850;DHT22;6995;52.618;13.488;2023-05-21T00:07:13;16.10;99.90
13850;DHT22;6995;52.618;13.488;2023-05-21T00:09:39;16.10;99.90
13850;DHT22;6995;52.618;13.488;2023-05-21T00:12:06;16.10;99.90
13850;DHT22;6995;52.618;13.488;2023-05-21T00:14:33;16.10;99.90
13850;DHT22;6995;52.618;13.488;2023-05-21T00:16:59;16.10;99.90
13850;DHT22;6995;52.618;13.488;2023-05-21T00:19:24;16.10;99.90
13850;DHT22;6995;52.618;13.488;2023-05-21T00:21:51;16.00;99.90
13850;DHT22;6995;52.618;13.488;2023-05-21T00:24:17;16.00;99.90
13850;DHT22;6995;52.618;13.488;2023-05-21T00:26:43;16.10;99.90
13850;DHT22;6995;52.618;13.488;2023-05-21T00:29:08;16.00;99.90
13850;DHT22;6995;52.618;13.488;2023-05-21T00:31:34;16.00;99.90
13850;DHT22;6995;52.618;13.488;2023-05-21T00:33:59;16.00;99.90
13850;DHT22;6995;52.618;13.488;2023-05-21T00:36:25;16.00;99.90
13850;DHT22;6995;52.618;13.488;2023-05-21T00:38:51;16.00;99.90
13850;DHT22;6995;52.618;13.488;2023-05-21T00:41:17;16.00;99.90
13850;DHT22;6995;52.618;13.488;2023-05-21T00:43:43;16.00;99.90
13850;DHT22;6995;52.618;13.488;2023-05-21T00:46:12;16.00;99.90
13850;DHT22;6995;52.618;13.488;2023-05-21T00:48:38;16.00;99.90
13850;DHT22;6995;52.618;13.488;2023-05-21T00:51:05;16.00;99.90
13850;DHT22;6995;52.618;13.488;2023-05-21T00:53:31;16.00;99.90
13850;DHT22;6995;52.618;13.488;2023-05-21T00:55:59;16.00;99.90
13850;DHT22;6995;52.618;13.488;2023-05-21T00:58:25;16.00;99.90
13850;DHT22;6995;52.618;13.488;2023-05-21T01:00:51;15.90;99.90
13850;DHT22;6995;52.618;13.488;2023-05-21T01:06:24;15.90;99.90
13850;DHT22;6995;52.618;13.488;2023-05-21T01:08:49;15.90;99.90
13850;DHT22;6995;52.618;13.488;2023-05-21T01:11:15;15.90;99.90
13850;DHT22;6995;52.618;13.488;2023-05-21T01:13:42;15.90;99.90
13850;DHT22;6995;52.618;13.488;2023-05-21T01:16:09;15.90;99.90
13850;DHT22;6995;52.618;13.488;2023-05-21T01:18:36;15.90;99.90
13850;DHT22;6995;52.618;13.488;2023-05-21T01:21:02;15.90;99.90
13850;DHT22;6995;52.618;13.488;2023-05-21T01:23:28;15.90;99.90
13850;DHT22;6995;52.618;13.488;2023-05-21T01:25:54;15.90;99.90
13850;DHT22;6995;52.618;13.488;2023-05-21T01:28:20;15.90;99.90
13850;DHT22;6995;52.618;13.488;2023-05-21T01:30:46;15.80;99.90
13850;DHT22;6995;52.618;13.488;2023-05-21T01:33:32;15.80;99.90
13850;DHT22;6995;52.618;13.488;2023-05-21T01:36:08;15.80;99.90
13850;DHT22;6995;52.618;13.488;2023-05-21T01:38:46;15.80;99.90
13850;DHT22;6995;52.618;13.488;2023-05-21T01:41:17;15.80;99.90
13850;DHT22;6995;52.618;13.488;2023-05-21T01:43:44;15.80;99.90
13850;DHT22;6995;52.618;13.488;2023-05-21T01:46:14;15.80;99.90
13850;DHT22;6995;52.618;13.488;2023-05-21T01:48:43;15.80;99.90
13850;DHT22;6995;52.618;13.488;2023-05-21T01:51:08;15.80;99.90
13850;DHT22;6995;52.618;13.488;2023-05-21T01:53:34;15.70;99.90
13850;DHT22;6995;52.618;13.488;2023-05-21T01:56:03;15.70;99.90
13850;DHT22;6995;52.618;13.488;2023-05-21T01:58:29;15.70;99.90
13850;DHT22;6995;52.618;13.488;2023-05-21T02:00:54;15.70;99.90
13850;DHT22;6995;52.618;13.488;2023-05-21T02:03:24;15.70;99.90
13850;DHT22;6995;52.618;13.488;2023-05-21T02:05:49;15.70;99.90
13850;DHT22;6995;52.618;13.488;2023-05-21T02:08:16;15.70;99.90
13850;DHT22;6995;52.618;13.488;2023-05-21T02:10:44;15.70;99.90
13850;DHT22;6995;52.618;13.488;2023-05-21T02:13:10;15.70;99.90
13850;DHT22;6995;52.618;13.488;2023-05-21T02:15:36;15.70;99.90
13850;DHT22;6995;52.618;13.488;2023-05-21T02:18:01;15.70;99.90
13850;DHT22;6995;52.618;13.488;2023-05-21T02:20:28;15.60;99.90
13850;DHT22;6995;52.618;13.488;2023-05-21T02:22:54;15.60;99.90
13850;DHT22;6995;52.618;13.488;2023-05-21T02:25:20;15.60;99.90
13850;DHT22;6995;52.618;13.488;2023-05-21T02:27:45;15.60;99.90
13850;DHT22;6995;52.618;13.488;2023-05-21T02:30:13;15.70;99.90
13850;DHT22;6995;52.618;13.488;2023-05-21T02:32:40;15.60;99.90
13850;DHT22;6995;52.618;13.488;2023-05-21T02:35:11;15.70;99.90
13850;DHT22;6995;52.618;13.488;2023-05-21T02:37:37;15.70;99.90
13850;DHT22;6995;52.618;13.488;2023-05-21T02:40:05;15.60;99.90
13850;DHT22;6995;52.618;13.488;2023-05-21T02:42:32;15.60;99.90
13850;DHT22;6995;52.618;13.488;2023-05-21T02:44:58;15.60;99.90
13850;DHT22;6995;52.618;13.488;2023-05-21T02:47:23;15.50;99.90
13850;DHT22;6995;52.618;13.488;2023-05-21T02:49:50;15.50;99.90
13850;DHT22;6995;52.618;13.488;2023-05-21T02:52:17;15.50;99.90
13850;DHT22;6995;52.618;13.488;2023-05-21T02:54:43;15.50;99.90
13850;DHT22;6995;52.618;13.488;2023-05-21T02:57:09;15.50;99.90
13850;DHT22;6995;52.618;13.488;2023-05-21T02:59:35;15.50;99.90
13850;DHT22;6995;52.618;13.488;2023-05-21T03:02:00;15.50;99.90
13850;DHT22;6995;52.618;13.488;2023-05-21T03:04:26;15.50;99.90
13850;DHT22;6995;52.618;13.488;2023-05-21T03:06:53;15.50;99.90
13850;DHT22;6995;52.618;13.488;2023-05-21T03:09:22;15.50;99.90
13850;DHT22;6995;52.618;13.488;2023-05-21T03:11:48;15.40;99.90
13850;DHT22;6995;52.618;13.488;2023-05-21T03:14:14;15.50;99.90
13850;DHT22;6995;52.618;13.488;2023-05-21T03:16:41;15.50;99.90
13850;DHT22;6995;52.618;13.488;2023-05-21T03:19:08;15.50;99.90
13850;DHT22;6995;52.618;13.488;2023-05-21T03:21:34;15.40;99.90
13850;DHT22;6995;52.618;13.488;2023-05-21T03:24:01;15.40;99.90
13850;DHT22;6995;52.618;13.488;2023-05-21T03:26:27;15.50;99.90
13850;DHT22;6995;52.618;13.488;2023-05-21T03:28:57;15.50;99.90
13850;DHT22;6995;52.618;13.488;2023-05-21T03:31:24;15.50;99.90
13850;DHT22;6995;52.618;13.488;2023-05-21T03:33:50;15.50;99.90
13850;DHT22;6995;52.618;13.488;2023-05-21T03:36:17;15.60;99.90
13850;DHT22;6995;52.618;13.488;2023-05-21T03:38:42;15.60;99.90
13850;DHT22;6995;52.618;13.488;2023-05-21T03:41:08;15.60;99.90
13850;DHT22;6995;52.618;13.488;2023-05-21T03:43:34;15.70;99.90
13850;DHT22;6995;52.618;13.488;2023-05-21T03:46:00;15.70;99.90
13850;DHT22;6995;52.618;13.488;2023-05-21T03:48:26;15.70;99.90
13850;DHT22;6995;52.618;13.488;2023-05-21T03:50:51;15.60;99.90
13850;DHT22;6995;52.618;13.488;2023-05-21T03:53:17;15.70;99.90
13850;DHT22;6995;52.618;13.488;2023-05-21T03:55:43;15.70;99.90
13850;DHT22;6995;52.618;13.488;2023-05-21T03:58:08;15.80;99.90
13850;DHT22;6995;52.618;13.488;2023-05-21T04:00:35;15.80;99.90
13850;DHT22;6995;52.618;13.488;2023-05-21T04:03:02;15.90;99.90
13850;DHT22;6995;52.618;13.488;2023-05-21T04:05:28;16.00;99.90
13850;DHT22;6995;52.618;13.488;2023-05-21T04:07:53;16.00;99.90
13850;DHT22;6995;52.618;13.488;2023-05-21T04:10:19;16.00;99.90
13850;DHT22;6995;52.618;13.488;2023-05-21T04:12:45;16.10;99.90
13850;DHT22;6995;52.618;13.488;2023-05-21T04:15:13;16.10;99.90
13850;DHT22;6995;52.618;13.488;2023-05-21T04:17:43;16.10;99.90
13850;DHT22;6995;52.618;13.488;2023-05-21T04:20:10;16.10;99.90
13850;DHT22;6995;52.618;13.488;2023-05-21T04:22:36;16.20;99.90
13850;DHT22;6995;52.618;13.488;2023-05-21T04:25:02;16.30;99.90
13850;DHT22;6995;52.618;13.488;2023-05-21T04:27:27;16.50;99.90
13850;DHT22;6995;52.618;13.488;2023-05-21T04:29:53;16.60;99.90
13850;DHT22;6995;52.618;13.488;2023-05-21T04:32:22;16.70;99.90
13850;DHT22;6995;52.618;13.488;2023-05-21T04:34:48;16.80;99.90
13850;DHT22;6995;52.618;13.488;2023-05-21T04:37:14;16.80;99.90
13850;DHT22;6995;52.618;13.488;2023-05-21T04:39:42;16.90;99.90
13850;DHT22;6995;52.618;13.488;2023-05-21T04:42:08;17.00;99.90
13850;DHT22;6995;52.618;13.488;2023-05-21T04:44:35;17.10;99.90
13850;DHT22;6995;52.618;13.488;2023-05-21T04:47:02;17.10;99.90
13850;DHT22;6995;52.618;13.488;2023-05-21T04:49:28;17.10;99.90
13850;DHT22;6995;52.618;13.488;2023-05-21T04:51:54;17.30;99.90
13850;DHT22;6995;52.618;13.488;2023-05-21T04:54:19;17.40;99.90
13850;DHT22;6995;52.618;13.488;2023-05-21T04:56:45;17.40;99.90
13850;DHT22;6995;52.618;13.488;2023-05-21T04:59:12;17.60;99.90
13850;DHT22;6995;52.618;13.488;2023-05-21T05:01:37;17.70;99.90
13850;DHT22;6995;52.618;13.488;2023-05-21T05:04:04;17.80;99.90
13850;DHT22;6995;52.618;13.488;2023-05-21T05:06:29;17.80;99.90
13850;DHT22;6995;52.618;13.488;2023-05-21T05:08:56;18.00;99.90
13850;DHT22;6995;52.618;13.488;2023-05-21T05:11:21;18.10;99.90
13850;DHT22;6995;52.618;13.488;2023-05-21T05:13:47;18.20;99.90
13850;DHT22;6995;52.618;13.488;2023-05-21T05:16:13;18.30;99.90
13850;DHT22;6995;52.618;13.488;2023-05-21T05:18:43;18.40;99.90
13850;DHT22;6995;52.618;13.488;2023-05-21T05:21:09;18.50;99.90
13850;DHT22;6995;52.618;13.488;2023-05-21T05:23:34;18.60;99.90
13850;DHT22;6995;52.618;13.488;2023-05-21T05:26:00;18.60;99.90
13850;DHT22;6995;52.618;13.488;2023-05-21T05:28:26;18.70;99.90
13850;DHT22;6995;52.618;13.488;2023-05-21T05:30:51;18.80;99.90
13850;DHT22;6995;52.618;13.488;2023-05-21T05:33:17;18.80;99.90
13850;DHT22;6995;52.618;13.488;2023-05-21T05:35:43;18.90;99.90
13850;DHT22;6995;52.618;13.488;2023-05-21T05:38:08;19.10;99.90
13850;DHT22;6995;52.618;13.488;2023-05-21T05:40:34;19.30;99.90
13850;DHT22;6995;52.618;13.488;2023-05-21T05:43:00;19.40;99.90
13850;DHT22;6995;52.618;13.488;2023-05-21T05:45:25;19.60;99.90
13850;DHT22;6995;52.618;13.488;2023-05-21T05:47:51;19.70;99.90
13850;DHT22;6995;52.618;13.488;2023-05-21T05:50:17;19.80;99.90
13850;DHT22;6995;52.618;13.488;2023-05-21T05:52:42;19.90;99.90
13850;DHT22;6995;52.618;13.488;2023-05-21T05:55:08;19.90;99.90
13850;DHT22;6995;52.618;13.488;2023-05-21T05:57:36;19.90;99.90
13850;DHT22;6995;52.618;13.488;2023-05-21T06:00:03;19.80;99.90
13850;DHT22;6995;52.618;13.488;2023-05-21T06:02:29;20.00;99.90
13850;DHT22;6995;52.618;13.488;2023-05-21T06:04:56;20.00;99.90
13850;DHT22;6995;52.618;13.488;2023-05-21T06:07:22;20.00;99.90
13850;DHT22;6995;52.618;13.488;2023-05-21T06:09:48;20.10;99.90
13850;DHT22;6995;52.618;13.488;2023-05-21T06:12:14;20.20;99.90
13850;DHT22;6995;52.618;13.488;2023-05-21T06:14:41;20.40;99.90
13850;DHT22;6995;52.618;13.488;2023-05-21T06:17:06;20.30;99.90
13850;DHT22;6995;52.618;13.488;2023-05-21T06:19:32;20.30;99.90
13850;DHT22;6995;52.618;13.488;2023-05-21T06:21:58;20.40;99.90
13850;DHT22;6995;52.618;13.488;2023-05-21T06:24:24;20.50;99.90
13850;DHT22;6995;52.618;13.488;2023-05-21T06:26:50;20.40;99.90
13850;DHT22;6995;52.618;13.488;2023-05-21T06:29:16;20.70;99.90
13850;DHT22;6995;52.618;13.488;2023-05-21T06:31:42;20.90;99.90
13850;DHT22;6995;52.618;13.488;2023-05-21T06:34:07;21.00;99.90
13850;DHT22;6995;52.618;13.488;2023-05-21T06:36:33;20.90;99.90
13850;DHT22;6995;52.618;13.488;2023-05-21T06:38:59;21.00;99.90
13850;DHT22;6995;52.618;13.488;2023-05-21T06:41:25;21.10;96.30
13850;DHT22;6995;52.618;13.488;2023-05-21T06:43:51;21.20;98.50
13850;DHT22;6995;52.618;13.488;2023-05-21T06:46:16;21.00;99.90
13850;DHT22;6995;52.618;13.488;2023-05-21T06:48:43;21.00;99.90
13850;DHT22;6995;52.618;13.488;2023-05-21T06:51:08;21.00;99.90
13850;DHT22;6995;52.618;13.488;2023-05-21T06:53:34;21.20;91.20
13850;DHT22;6995;52.618;13.488;2023-05-21T06:56:00;21.30;90.00
13850;DHT22;6995;52.618;13.488;2023-05-21T06:58:26;21.50;85.10
13850;DHT22;6995;52.618;13.488;2023-05-21T07:00:56;21.50;84.10
13850;DHT22;6995;52.618;13.488;2023-05-21T07:03:22;21.60;82.70
13850;DHT22;6995;52.618;13.488;2023-05-21T07:05:56;21.80;78.50
13850;DHT22;6995;52.618;13.488;2023-05-21T07:08:21;21.90;74.40
13850;DHT22;6995;52.618;13.488;2023-05-21T07:10:48;22.10;72.70
13850;DHT22;6995;52.618;13.488;2023-05-21T07:13:14;22.30;65.20
13850;DHT22;6995;52.618;13.488;2023-05-21T07:15:40;22.50;63.20
13850;DHT22;6995;52.618;13.488;2023-05-21T07:18:06;22.60;61.70
13850;DHT22;6995;52.618;13.488;2023-05-21T07:20:31;22.80;54.20
13850;DHT22;6995;52.618;13.488;2023-05-21T07:23:05;22.80;56.00
13850;DHT22;6995;52.618;13.488;2023-05-21T07:25:31;22.80;48.00
13850;DHT22;6995;52.618;13.488;2023-05-21T07:27:56;22.70;49.20
13850;DHT22;6995;52.618;13.488;2023-05-21T07:30:22;22.70;49.10
13850;DHT22;6995;52.618;13.488;2023-05-21T07:32:47;22.70;45.10
13850;DHT22;6995;52.618;13.488;2023-05-21T07:35:13;22.60;45.90
13850;DHT22;6995;52.618;13.488;2023-05-21T07:37:39;22.60;48.40
13850;DHT22;6995;52.618;13.488;2023-05-21T07:40:05;22.60;47.50
13850;DHT22;6995;52.618;13.488;2023-05-21T07:42:32;22.50;47.80
13850;DHT22;6995;52.618;13.488;2023-05-21T07:44:58;22.70;47.00
13850;DHT22;6995;52.618;13.488;2023-05-21T07:47:32;23.00;40.70
13850;DHT22;6995;52.618;13.488;2023-05-21T07:49:58;23.00;39.40
13850;DHT22;6995;52.618;13.488;2023-05-21T07:52:24;23.20;35.20
13850;DHT22;6995;52.618;13.488;2023-05-21T07:54:49;23.30;35.90
13850;DHT22;6995;52.618;13.488;2023-05-21T07:57:15;23.60;31.80
13850;DHT22;6995;52.618;13.488;2023-05-21T07:59:41;23.70;26.50
13850;DHT22;6995;52.618;13.488;2023-05-21T08:02:06;23.90;23.30
13850;DHT22;6995;52.618;13.488;2023-05-21T08:04:32;24.10;18.30
13850;DHT22;6995;52.618;13.488;2023-05-21T08:06:58;24.40;14.10
13850;DHT22;6995;52.618;13.488;2023-05-21T08:09:24;24.60;11.20
13850;DHT22;6995;52.618;13.488;2023-05-21T08:11:50;24.60;9.80
13850;DHT22;6995;52.618;13.488;2023-05-21T08:14:15;24.50;31.40
13850;DHT22;6995;52.618;13.488;2023-05-21T08:16:41;24.50;6.70
13850;DHT22;6995;52.618;13.488;2023-05-21T08:19:07;24.40;7.10
13850;DHT22;6995;52.618;13.488;2023-05-21T08:21:33;24.60;3.50
13850;DHT22;6995;52.618;13.488;2023-05-21T08:23:59;24.80;3.50
13850;DHT22;6995;52.618;13.488;2023-05-21T08:26:24;24.60;5.20
13850;DHT22;6995;52.618;13.488;2023-05-21T08:28:50;24.40;2.10
13850;DHT22;6995;52.618;13.488;2023-05-21T08:31:19;24.50;23.20
13850;DHT22;6995;52.618;13.488;2023-05-21T08:33:52;24.40;2.70
13850;DHT22;6995;52.618;13.488;2023-05-21T08:36:18;24.30;1.00
13850;DHT22;6995;52.618;13.488;2023-05-21T08:38:44;24.30;3.20
13850;DHT22;6995;52.618;13.488;2023-05-21T08:41:11;24.20;1.00
13850;DHT22;6995;52.618;13.488;2023-05-21T08:43:37;24.20;1.00
13850;DHT22;6995;52.618;13.488;2023-05-21T08:46:07;24.50;1.00
13850;DHT22;6995;52.618;13.488;2023-05-21T08:48:34;24.60;1.00
13850;DHT22;6995;52.618;13.488;2023-05-21T08:51:01;24.60;1.00
13850;DHT22;6995;52.618;13.488;2023-05-21T08:53:27;24.60;1.00
13850;DHT22;6995;52.618;13.488;2023-05-21T08:55:53;24.50;1.00
13850;DHT22;6995;52.618;13.488;2023-05-21T08:58:22;24.50;1.00
13850;DHT22;6995;52.618;13.488;2023-05-21T09:00:48;24.60;1.00
13850;DHT22;6995;52.618;13.488;2023-05-21T09:03:15;24.70;1.00
13850;DHT22;6995;52.618;13.488;2023-05-21T09:05:42;24.90;1.00
13850;DHT22;6995;52.618;13.488;2023-05-21T09:08:17;25.00;1.00
13850;DHT22;6995;52.618;13.488;2023-05-21T09:10:51;25.10;1.00
13850;DHT22;6995;52.618;13.488;2023-05-21T09:13:17;25.10;1.00
13850;DHT22;6995;52.618;13.488;2023-05-21T09:15:44;25.00;1.00
13850;DHT22;6995;52.618;13.488;2023-05-21T09:18:11;24.80;1.00
13850;DHT22;6995;52.618;13.488;2023-05-21T09:20:37;24.90;1.00
13850;DHT22;6995;52.618;13.488;2023-05-21T09:23:04;24.90;1.00
13850;DHT22;6995;52.618;13.488;2023-05-21T09:25:44;25.10;1.00
13850;DHT22;6995;52.618;13.488;2023-05-21T09:28:14;25.00;1.00
13850;DHT22;6995;52.618;13.488;2023-05-21T09:30:45;25.10;1.00
13850;DHT22;6995;52.618;13.488;2023-05-21T09:33:11;25.10;1.00
13850;DHT22;6995;52.618;13.488;2023-05-21T09:35:43;25.10;1.00
13850;DHT22;6995;52.618;13.488;2023-05-21T09:38:08;25.10;1.00
13850;DHT22;6995;52.618;13.488;2023-05-21T09:40:34;25.20;1.00
13850;DHT22;6995;52.618;13.488;2023-05-21T09:43:00;25.40;1.00
13850;DHT22;6995;52.618;13.488;2023-05-21T09:45:27;25.50;1.00
13850;DHT22;6995;52.618;13.488;2023-05-21T09:47:54;25.60;1.00
13850;DHT22;6995;52.618;13.488;2023-05-21T09:50:23;25.60;1.00
13850;DHT22;6995;52.618;13.488;2023-05-21T09:52:51;25.60;1.00
13850;DHT22;6995;52.618;13.488;2023-05-21T09:55:24;25.60;1.00
13850;DHT22;6995;52.618;13.488;2023-05-21T09:57:50;25.60;1.00
13850;DHT22;6995;52.618;13.488;2023-05-21T10:00:18;25.60;1.00
13850;DHT22;6995;52.618;13.488;2023-05-21T10:02:45;25.60;1.00
13850;DHT22;6995;52.618;13.488;2023-05-21T10:05:13;25.60;1.00
13850;DHT22;6995;52.618;13.488;2023-05-21T10:07:41;25.80;1.00
13850;DHT22;6995;52.618;13.488;2023-05-21T10:10:12;25.80;1.00
13850;DHT22;6995;52.618;13.488;2023-05-21T10:12:45;26.00;1.00
13850;DHT22;6995;52.618;13.488;2023-05-21T10:15:16;26.20;1.00
13850;DHT22;6995;52.618;13.488;2023-05-21T10:17:46;26.20;1.00
13850;DHT22;6995;52.618;13.488;2023-05-21T10:20:12;26.20;1.00
13850;DHT22;6995;52.618;13.488;2023-05-21T10:22:39;26.40;1.00
13850;DHT22;6995;52.618;13.488;2023-05-21T10:25:07;26.40;1.00
13850;DHT22;6995;52.618;13.488;2023-05-21T10:27:36;26.40;1.00
13850;DHT22;6995;52.618;13.488;2023-05-21T10:30:04;26.50;1.00
13850;DHT22;6995;52.618;13.488;2023-05-21T10:32:30;26.40;1.00
13850;DHT22;6995;52.618;13.488;2023-05-21T10:34:57;26.50;1.00
13850;DHT22;6995;52.618;13.488;2023-05-21T10:37:23;26.70;1.00
13850;DHT22;6995;52.618;13.488;2023-05-21T10:39:53;26.90;1.00
13850;DHT22;6995;52.618;13.488;2023-05-21T11:01:14;27.70;1.00
13850;DHT22;6995;52.618;13.488;2023-05-21T11:03:43;27.90;1.00
13850;DHT22;6995;52.618;13.488;2023-05-21T11:06:09;28.30;1.00
13850;DHT22;6995;52.618;13.488;2023-05-21T11:08:36;28.40;1.00
13850;DHT22;6995;52.618;13.488;2023-05-21T11:11:03;28.50;1.00
13850;DHT22;6995;52.618;13.488;2023-05-21T11:13:44;28.40;1.00
13850;DHT22;6995;52.618;13.488;2023-05-21T11:16:14;28.80;1.00
13850;DHT22;6995;52.618;13.488;2023-05-21T11:21:13;28.80;1.00
13850;DHT22;6995;52.618;13.488;2023-05-21T11:23:55;28.40;1.00
13850;DHT22;6995;52.618;13.488;2023-05-21T11:26:26;28.20;1.00
13850;DHT22;6995;52.618;13.488;2023-05-21T11:31:31;28.30;1.00
13850;DHT22;6995;52.618;13.488;2023-05-21T11:34:18;28.10;1.00
13850;DHT22;6995;52.618;13.488;2023-05-21T11:36:45;27.90;1.00
13850;DHT22;6995;52.618;13.488;2023-05-21T11:39:18;27.90;1.00
13850;DHT22;6995;52.618;13.488;2023-05-21T11:42:01;28.10;1.00
13850;DHT22;6995;52.618;13.488;2023-05-21T11:44:46;28.30;1.00
13850;DHT22;6995;52.618;13.488;2023-05-21T11:47:16;28.80;1.00
13850;DHT22;6995;52.618;13.488;2023-05-21T11:49:43;29.00;1.00
13850;DHT22;6995;52.618;13.488;2023-05-21T11:52:10;29.30;1.00
13850;DHT22;6995;52.618;13.488;2023-05-21T11:54:50;29.70;1.00
13850;DHT22;6995;52.618;13.488;2023-05-21T11:57:18;29.70;1.00
13850;DHT22;6995;52.618;13.488;2023-05-21T11:59:44;29.70;1.00
13850;DHT22;6995;52.618;13.488;2023-05-21T12:02:14;29.40;1.00
13850;DHT22;6995;52.618;13.488;2023-05-21T12:04:44;29.60;1.00
13850;DHT22;6995;52.618;13.488;2023-05-21T12:07:11;30.00;1.00
13850;DHT22;6995;52.618;13.488;2023-05-21T12:09:44;30.10;1.00
13850;DHT22;6995;52.618;13.488;2023-05-21T12:12:15;30.10;1.00
13850;DHT22;6995;52.618;13.488;2023-05-21T12:14:45;30.20;1.00
13850;DHT22;6995;52.618;13.488;2023-05-21T12:17:15;30.50;1.00
13850;DHT22;6995;52.618;13.488;2023-05-21T12:19:41;30.80;1.00
13850;DHT22;6995;52.618;13.488;2023-05-21T12:22:07;30.90;1.00
13850;DHT22;6995;52.618;13.488;2023-05-21T12:24:34;30.90;1.00
13850;DHT22;6995;52.618;13.488;2023-05-21T12:27:02;31.00;1.00
13850;DHT22;6995;52.618;13.488;2023-05-21T12:29:38;31.40;1.00
13850;DHT22;6995;52.618;13.488;2023-05-21T12:32:11;31.80;1.00
13850;DHT22;6995;52.618;13.488;2023-05-21T12:34:42;32.00;1.00
13850;DHT22;6995;52.618;13.488;2023-05-21T12:37:18;31.90;1.00
13850;DHT22;6995;52.618;13.488;2023-05-21T12:39:46;32.30;1.00
13850;DHT22;6995;52.618;13.488;2023-05-21T12:42:12;31.90;1.00
13850;DHT22;6995;52.618;13.488;2023-05-21T12:44:44;32.00;1.00
13850;DHT22;6995;52.618;13.488;2023-05-21T12:47:11;32.20;1.00
13850;DHT22;6995;52.618;13.488;2023-05-21T12:49:39;32.30;1.00
13850;DHT22;6995;52.618;13.488;2023-05-21T12:52:10;32.90;1.00
13850;DHT22;6995;52.618;13.488;2023-05-21T12:54:38;33.30;1.00
13850;DHT22;6995;52.618;13.488;2023-05-21T12:59:50;33.50;1.00
13850;DHT22;6995;52.618;13.488;2023-05-21T13:02:24;33.80;1.00
13850;DHT22;6995;52.618;13.488;2023-05-21T13:04:55;34.00;1.00
13850;DHT22;6995;52.618;13.488;2023-05-21T13:07:21;33.30;1.00
13850;DHT22;6995;52.618;13.488;2023-05-21T13:09:47;32.80;1.00
13850;DHT22;6995;52.618;13.488;2023-05-21T13:12:13;32.20;1.00
13850;DHT22;6995;52.618;13.488;2023-05-21T13:14:38;32.10;1.00
13850;DHT22;6995;52.618;13.488;2023-05-21T13:17:05;32.60;1.00
13850;DHT22;6995;52.618;13.488;2023-05-21T13:19:30;33.10;1.00
13850;DHT22;6995;52.618;13.488;2023-05-21T13:21:56;33.20;1.00
13850;DHT22;6995;52.618;13.488;2023-05-21T13:24:22;32.90;1.00
13850;DHT22;6995;52.618;13.488;2023-05-21T13:26:47;32.80;1.00
13850;DHT22;6995;52.618;13.488;2023-05-21T13:29:13;33.30;1.00
13850;DHT22;6995;52.618;13.488;2023-05-21T13:31:40;33.70;1.00
13850;DHT22;6995;52.618;13.488;2023-05-21T13:34:06;34.10;1.00
13850;DHT22;6995;52.618;13.488;2023-05-21T13:36:32;34.60;1.00
13850;DHT22;6995;52.618;13.488;2023-05-21T13:38:58;35.20;1.00
13850;DHT22;6995;52.618;13.488;2023-05-21T13:41:24;35.10;1.00
13850;DHT22;6995;52.618;13.488;2023-05-21T13:43:50;35.20;1.00
13850;DHT22;6995;52.618;13.488;2023-05-21T13:46:16;35.20;1.00
13850;DHT22;6995;52.618;13.488;2023-05-21T13:48:41;35.50;1.00
13850;DHT22;6995;52.618;13.488;2023-05-21T13:51:07;35.50;1.00
13850;DHT22;6995;52.618;13.488;2023-05-21T13:53:33;35.30;1.00
13850;DHT22;6995;52.618;13.488;2023-05-21T13:55:59;35.90;1.00
13850;DHT22;6995;52.618;13.488;2023-05-21T13:58:25;35.70;1.00
13850;DHT22;6995;52.618;13.488;2023-05-21T14:00:52;35.40;1.00
13850;DHT22;6995;52.618;13.488;2023-05-21T14:03:18;34.10;1.00
13850;DHT22;6995;52.618;13.488;2023-05-21T14:05:44;33.00;1.00
13850;DHT22;6995;52.618;13.488;2023-05-21T14:08:10;32.70;1.00
13850;DHT22;6995;52.618;13.488;2023-05-21T14:10:36;33.10;1.00
13850;DHT22;6995;52.618;13.488;2023-05-21T14:13:01;33.30;1.00
13850;DHT22;6995;52.618;13.488;2023-05-21T14:15:27;33.50;1.00
13850;DHT22;6995;52.618;13.488;2023-05-21T14:17:53;33.70;1.00
13850;DHT22;6995;52.618;13.488;2023-05-21T14:20:19;34.00;1.00
13850;DHT22;6995;52.618;13.488;2023-05-21T14:22:44;33.70;1.00
13850;DHT22;6995;52.618;13.488;2023-05-21T14:25:10;33.50;1.00
13850;DHT22;6995;52.618;13.488;2023-05-21T14:27:36;33.30;1.00
13850;DHT22;6995;52.618;13.488;2023-05-21T14:30:03;33.20;1.00
13850;DHT22;6995;52.618;13.488;2023-05-21T14:32:29;33.30;1.00
13850;DHT22;6995;52.618;13.488;2023-05-21T14:34:54;33.10;1.00
13850;DHT22;6995;52.618;13.488;2023-05-21T14:37:21;32.70;1.00
13850;DHT22;6995;52.618;13.488;2023-05-21T14:39:46;32.50;1.00
13850;DHT22;6995;52.618;13.488;2023-05-21T14:42:12;31.70;1.00
13850;DHT22;6995;52.618;13.488;2023-05-21T14:44:38;31.40;1.00
13850;DHT22;6995;52.618;13.488;2023-05-21T14:47:04;31.60;1.00
13850;DHT22;6995;52.618;13.488;2023-05-21T14:49:29;31.80;1.00
13850;DHT22;6995;52.618;13.488;2023-05-21T14:51:55;32.00;1.00
13850;DHT22;6995;52.618;13.488;2023-05-21T14:54:21;32.20;1.00
13850;DHT22;6995;52.618;13.488;2023-05-21T14:56:46;32.30;1.00
13850;DHT22;6995;52.618;13.488;2023-05-21T14:59:12;32.30;1.00
13850;DHT22;6995;52.618;13.488;2023-05-21T15:01:38;32.30;1.00
13850;DHT22;6995;52.618;13.488;2023-05-21T15:04:04;32.50;1.00
13850;DHT22;6995;52.618;13.488;2023-05-21T15:06:31;31.90;1.00
13850;DHT22;6995;52.618;13.488;2023-05-21T15:08:58;31.50;1.00
13850;DHT22;6995;52.618;13.488;2023-05-21T15:11:24;31.40;1.00
13850;DHT22;6995;52.618;13.488;2023-05-21T15:13:50;31.40;1.00
13850;DHT22;6995;52.618;13.488;2023-05-21T15:16:15;31.30;1.00
13850;DHT22;6995;52.618;13.488;2023-05-21T15:18:41;31.70;1.00
13850;DHT22;6995;52.618;13.488;2023-05-21T15:21:07;32.10;1.00
13850;DHT22;6995;52.618;13.488;2023-05-21T15:23:32;32.70;1.00
13850;DHT22;6995;52.618;13.488;2023-05-21T15:25:58;32.70;1.00
13850;DHT22;6995;52.618;13.488;2023-05-21T15:28:23;32.50;1.00
13850;DHT22;6995;52.618;13.488;2023-05-21T15:30:49;32.50;1.00
13850;DHT22;6995;52.618;13.488;2023-05-21T15:33:15;32.60;1.00
13850;DHT22;6995;52.618;13.488;2023-05-21T15:35:43;32.80;1.00
13850;DHT22;6995;52.618;13.488;2023-05-21T15:38:09;32.90;1.00
13850;DHT22;6995;52.618;13.488;2023-05-21T15:40:35;32.10;1.00
13850;DHT22;6995;52.618;13.488;2023-05-21T15:43:04;31.90;1.00
13850;DHT22;6995;52.618;13.488;2023-05-21T15:45:30;31.50;1.00
13850;DHT22;6995;52.618;13.488;2023-05-21T15:47:55;31.40;1.00
13850;DHT22;6995;52.618;13.488;2023-05-21T15:50:21;30.90;1.00
13850;DHT22;6995;52.618;13.488;2023-05-21T15:52:46;30.90;1.00
13850;DHT22;6995;52.618;13.488;2023-05-21T15:55:12;30.80;1.00
13850;DHT22;6995;52.618;13.488;2023-05-21T15:57:38;30.90;1.00
13850;DHT22;6995;52.618;13.488;2023-05-21T16:00:04;31.10;1.00
13850;DHT22;6995;52.618;13.488;2023-05-21T16:02:30;30.80;1.00
13850;DHT22;6995;52.618;13.488;2023-05-21T16:04:56;30.50;1.00
13850;DHT22;6995;52.618;13.488;2023-05-21T16:07:22;30.60;1.00